createdAt,value
2022-10-05T00:02:53.914Z,92.49
2022-10-05T00:05:55.697Z,92.30
2022-10-05T00:08:57.618Z,90.05
2022-10-05T00:11:59.659Z,91.34
2022-10-05T00:15:01.585Z,90.14
2022-10-05T00:18:11.191Z,90.74
2022-10-05T00:21:20.245Z,90.44
2022-10-05T00:24:22.062Z,91.11
2022-10-05T00:27:32.166Z,89.54
2022-10-05T00:30:34.239Z,88.49
2022-10-05T00:33:36.832Z,89.68
2022-10-05T00:36:39.694Z,90.15
2022-10-05T00:39:42.240Z,90.05
2022-10-05T00:42:56.651Z,90.25
2022-10-05T00:46:22.048Z,90.14
2022-10-05T00:49:38.894Z,89.66
2022-10-05T00:53:39.583Z,90.04
2022-10-05T00:56:53.164Z,88.43
2022-10-05T01:00:13.353Z,90.67
2022-10-05T01:03:16.151Z,89.08
2022-10-05T01:06:44.101Z,88.30
2022-10-05T01:09:56.013Z,88.34
2022-10-05T01:13:40.000Z,88.81
2022-10-05T01:16:51.420Z,87.96
2022-10-05T01:20:13.278Z,87.79
2022-10-05T01:23:33.320Z,87.58
2022-10-05T01:26:56.165Z,88.82
2022-10-05T01:30:13.544Z,90.26
2022-10-05T01:33:18.507Z,90.43
2022-10-05T01:36:28.633Z,89.42
2022-10-05T01:40:01.392Z,88.23
2022-10-05T01:43:30.314Z,88.17
2022-10-05T01:46:42.348Z,88.08
2022-10-05T01:49:56.384Z,88.19
2022-10-05T01:53:13.250Z,89.26
2022-10-05T01:56:47.423Z,89.67
2022-10-05T02:00:14.591Z,90.26
2022-10-05T02:03:20.993Z,90.57
2022-10-05T02:06:30.710Z,90.50
2022-10-05T02:09:39.711Z,89.94
2022-10-05T02:12:43.623Z,89.82
2022-10-05T02:15:53.189Z,88.86
2022-10-05T02:19:00.312Z,88.97
2022-10-05T02:22:15.318Z,89.96
2022-10-05T02:25:20.408Z,90.05
2022-10-05T02:28:23.801Z,89.52
2022-10-05T02:31:31.547Z,89.98
2022-10-05T02:34:39.992Z,90.52
2022-10-05T02:38:09.576Z,89.38
2022-10-05T02:41:38.846Z,89.37
2022-10-05T02:45:03.757Z,89.99
2022-10-05T02:48:25.499Z,90.02
2022-10-05T02:51:35.863Z,90.86
2022-10-05T02:54:50.991Z,90.32
2022-10-05T02:58:12.122Z,91.23
2022-10-05T03:01:27.741Z,91.87
2022-10-05T03:04:37.397Z,91.70
2022-10-05T03:07:50.970Z,90.78
2022-10-05T03:11:04.803Z,91.08
2022-10-05T03:14:44.057Z,90.58
2022-10-05T03:18:20.455Z,90.18
2022-10-05T03:21:22.660Z,91.06
2022-10-05T03:24:43.817Z,90.97
2022-10-05T03:27:59.948Z,91.37
2022-10-05T03:31:23.973Z,89.91
2022-10-05T03:34:49.309Z,89.78
2022-10-05T03:38:15.663Z,89.83
2022-10-05T03:41:35.728Z,89.38
2022-10-05T03:45:09.590Z,89.56
2022-10-05T03:48:16.180Z,89.10
2022-10-05T03:51:29.965Z,89.20
2022-10-05T03:55:00.499Z,88.47
2022-10-05T03:58:20.327Z,88.09
2022-10-05T04:01:29.687Z,88.76
2022-10-05T04:04:38.741Z,89.45
2022-10-05T04:07:48.442Z,89.23
2022-10-05T04:10:54.988Z,89.79
2022-10-05T04:14:07.335Z,90.21
2022-10-05T04:17:14.648Z,91.44
2022-10-05T04:20:25.331Z,91.15
2022-10-05T04:23:48.569Z,90.55
2022-10-05T04:27:39.582Z,90.76
2022-10-05T04:30:45.607Z,90.66
2022-10-05T04:33:58.238Z,92.08
2022-10-05T04:37:05.587Z,92.72
2022-10-05T04:40:34.223Z,92.26
2022-10-05T04:43:50.693Z,90.73
2022-10-05T04:47:46.583Z,91.72
2022-10-05T04:51:50.286Z,92.53
2022-10-05T04:55:16.195Z,91.89
2022-10-05T04:58:25.566Z,91.72
2022-10-05T05:01:58.940Z,91.65
2022-10-05T05:05:20.505Z,90.56
2022-10-05T05:08:30.991Z,90.84
2022-10-05T05:12:22.667Z,91.43
2022-10-05T05:24:38.987Z,89.68
2022-10-05T05:27:50.072Z,89.97
2022-10-05T05:31:26.137Z,90.31
2022-10-05T05:35:05.874Z,90.51
2022-10-05T05:38:31.254Z,90.61
2022-10-05T05:41:54.333Z,90.83
2022-10-05T05:45:00.497Z,90.10
2022-10-05T05:48:09.465Z,90.41
2022-10-05T05:51:18.051Z,89.68
2022-10-05T05:54:41.340Z,90.13
2022-10-05T05:58:12.105Z,89.43
2022-10-05T06:01:42.038Z,89.05
2022-10-05T06:04:52.150Z,89.91
2022-10-05T06:07:56.255Z,89.92
2022-10-05T06:11:02.858Z,89.71
2022-10-05T06:14:11.556Z,89.63
2022-10-05T06:17:21.366Z,89.25
2022-10-05T06:20:31.140Z,89.96
2022-10-05T06:23:46.358Z,90.85
2022-10-05T06:27:18.307Z,89.12
2022-10-05T06:30:20.439Z,87.85
2022-10-05T06:33:41.690Z,86.78
2022-10-05T06:36:53.376Z,87.62
2022-10-05T06:40:44.341Z,87.58
2022-10-05T06:44:14.115Z,87.93
2022-10-05T06:47:47.571Z,87.79
2022-10-05T06:51:16.992Z,90.31
2022-10-05T06:55:01.285Z,91.39
2022-10-05T06:58:15.485Z,89.92
2022-10-05T07:01:25.296Z,90.47
2022-10-05T07:04:53.403Z,89.88
2022-10-05T07:07:59.426Z,89.95
2022-10-05T07:11:13.889Z,90.68
2022-10-05T07:14:27.781Z,90.31
2022-10-05T07:17:45.696Z,89.33
2022-10-05T07:21:14.688Z,91.96
2022-10-05T07:24:29.526Z,90.74
2022-10-05T07:27:42.538Z,88.24
2022-10-05T07:30:53.885Z,86.41
2022-10-05T07:34:02.980Z,85.66
2022-10-05T07:37:28.563Z,83.43
2022-10-05T07:40:42.143Z,81.67
2022-10-05T07:44:23.291Z,82.36
2022-10-05T07:47:31.289Z,81.77
2022-10-05T07:50:43.825Z,80.77
2022-10-05T07:54:03.204Z,80.35
2022-10-05T07:57:21.818Z,81.61
2022-10-05T08:00:37.956Z,82.80
2022-10-05T08:03:48.214Z,80.48
2022-10-05T08:06:53.209Z,80.52
2022-10-05T08:10:14.765Z,79.75
2022-10-05T08:13:39.739Z,80.89
2022-10-05T08:16:42.398Z,81.28
2022-10-05T08:19:48.527Z,79.59
2022-10-05T08:23:06.996Z,82.04
2022-10-05T08:26:15.413Z,77.62
2022-10-05T08:29:30.543Z,76.99
2022-10-05T08:32:41.249Z,76.89
2022-10-05T08:35:45.432Z,78.39
2022-10-05T08:38:47.794Z,76.90
2022-10-05T08:42:27.333Z,76.64
2022-10-05T08:45:29.107Z,78.58
2022-10-05T08:48:52.687Z,78.47
2022-10-05T08:52:25.999Z,77.28
2022-10-05T08:55:56.104Z,78.73
2022-10-05T08:59:25.924Z,77.25
2022-10-05T09:02:33.571Z,78.00
2022-10-05T09:05:47.446Z,77.41
2022-10-05T09:09:07.320Z,75.03
2022-10-05T09:12:21.620Z,75.79
2022-10-05T09:15:27.718Z,75.62
2022-10-05T09:19:00.405Z,73.90
2022-10-05T09:22:15.389Z,73.60
2022-10-05T09:25:39.622Z,73.83
2022-10-05T09:28:56.269Z,74.64
2022-10-05T09:32:35.601Z,75.32
2022-10-05T09:35:57.457Z,73.77
2022-10-05T09:39:05.262Z,73.13
2022-10-05T09:42:25.547Z,72.14
2022-10-05T09:45:27.483Z,73.02
2022-10-05T09:48:54.305Z,72.70
2022-10-05T09:52:06.276Z,72.16
2022-10-05T09:55:42.192Z,72.18
2022-10-05T09:59:08.834Z,71.92
2022-10-05T10:02:27.656Z,71.12
2022-10-05T10:05:56.900Z,69.19
2022-10-05T10:09:10.308Z,68.44
2022-10-05T10:13:02.330Z,67.10
2022-10-05T10:16:23.758Z,66.30
2022-10-05T10:19:56.486Z,66.14
2022-10-05T10:23:49.387Z,66.36
2022-10-05T10:27:09.876Z,65.80
2022-10-05T10:30:54.741Z,65.90
2022-10-05T10:34:29.501Z,64.91
2022-10-05T10:37:34.531Z,66.58
2022-10-05T10:40:55.090Z,66.42
2022-10-05T10:43:59.820Z,65.69
2022-10-05T10:47:23.957Z,65.33
2022-10-05T10:50:33.300Z,65.10
2022-10-05T10:54:22.275Z,64.38
2022-10-05T10:57:46.008Z,64.65
2022-10-05T11:00:59.639Z,64.81
2022-10-05T11:04:26.532Z,63.54
2022-10-05T11:07:57.133Z,64.02
2022-10-05T11:11:29.579Z,63.75
2022-10-05T11:15:05.597Z,64.30
2022-10-05T11:18:20.489Z,65.23
2022-10-05T11:21:31.800Z,65.04
2022-10-05T11:24:52.033Z,63.74
2022-10-05T11:28:14.368Z,65.69
2022-10-05T11:31:28.056Z,64.48
2022-10-05T11:34:48.375Z,64.60
2022-10-05T11:38:04.119Z,65.30
2022-10-05T11:41:41.353Z,65.31
2022-10-05T11:45:11.860Z,65.34
2022-10-05T11:48:32.324Z,65.07
2022-10-05T11:52:09.802Z,62.78
2022-10-05T11:55:39.749Z,62.13
2022-10-05T11:58:47.463Z,64.82
2022-10-05T12:02:43.064Z,63.29
2022-10-05T12:06:06.034Z,62.45
2022-10-05T12:10:10.977Z,63.67
2022-10-05T12:13:56.151Z,63.92
2022-10-05T12:17:03.074Z,64.40
2022-10-05T12:20:28.114Z,63.34
2022-10-05T12:23:42.746Z,64.07
2022-10-05T12:26:55.645Z,64.90
2022-10-05T12:30:07.005Z,63.86
2022-10-05T12:33:13.914Z,62.92
2022-10-05T12:36:18.267Z,62.05
2022-10-05T12:39:30.229Z,64.02
2022-10-05T12:42:42.843Z,64.19
2022-10-05T12:46:19.845Z,63.62
2022-10-05T12:49:30.770Z,64.49
2022-10-05T12:52:38.760Z,64.20
2022-10-05T12:56:02.189Z,64.58
2022-10-05T12:59:18.826Z,64.89
2022-10-05T13:02:51.034Z,64.81
2022-10-05T13:06:04.315Z,64.64
2022-10-05T13:09:19.118Z,64.52
2022-10-05T13:12:20.974Z,65.75
2022-10-05T13:15:36.499Z,64.83
2022-10-05T13:18:54.589Z,64.43
2022-10-05T13:22:04.998Z,65.79
2022-10-05T13:25:32.830Z,65.03
2022-10-05T13:28:39.378Z,64.81
2022-10-05T13:31:46.410Z,65.27
2022-10-05T13:35:00.399Z,65.87
2022-10-05T13:38:28.475Z,65.05
2022-10-05T13:41:30.314Z,66.48
2022-10-05T13:44:53.500Z,65.55
2022-10-05T13:48:26.965Z,64.49
2022-10-05T13:52:00.192Z,66.79
2022-10-05T13:55:11.691Z,67.01
2022-10-05T13:58:47.032Z,66.48
2022-10-05T14:02:03.074Z,67.69
2022-10-05T14:05:24.101Z,67.33
2022-10-05T14:08:32.297Z,67.58
2022-10-05T14:11:36.919Z,67.95
2022-10-05T14:14:59.459Z,67.69
2022-10-05T14:18:28.039Z,67.67
2022-10-05T14:21:32.003Z,67.95
2022-10-05T14:24:48.045Z,67.51
2022-10-05T14:28:01.054Z,67.91
2022-10-05T14:31:14.578Z,67.62
2022-10-05T14:34:27.582Z,68.15
2022-10-05T14:38:03.278Z,67.14
2022-10-05T14:41:08.685Z,69.21
2022-10-05T14:44:17.995Z,68.67
2022-10-05T14:47:24.289Z,69.02
2022-10-05T14:50:34.942Z,68.51
2022-10-05T14:53:44.532Z,69.31
2022-10-05T14:56:59.345Z,69.10
2022-10-05T15:00:11.409Z,69.63
2022-10-05T15:03:45.613Z,69.34
2022-10-05T15:07:04.444Z,70.53
2022-10-05T15:13:55.750Z,71.03
2022-10-05T15:17:05.876Z,71.65
2022-10-05T15:20:20.698Z,71.57
2022-10-05T15:23:31.721Z,72.12
2022-10-05T15:26:46.741Z,72.38
2022-10-05T15:30:00.728Z,73.02
2022-10-05T15:33:29.902Z,74.26
2022-10-05T15:37:04.605Z,75.20
2022-10-05T15:40:36.874Z,76.61
2022-10-05T15:43:47.085Z,77.89
2022-10-05T15:47:10.651Z,77.59
2022-10-05T15:50:21.977Z,78.25
2022-10-05T15:53:36.271Z,78.13
2022-10-05T15:56:43.046Z,77.97
2022-10-05T16:00:05.916Z,78.28
2022-10-05T16:03:21.720Z,78.42
2022-10-05T16:06:49.066Z,78.44
2022-10-05T16:10:02.903Z,78.44
2022-10-05T16:13:29.421Z,79.26
2022-10-05T16:16:52.996Z,79.66
2022-10-05T16:20:05.412Z,79.57
2022-10-05T16:23:22.086Z,80.41
2022-10-05T16:26:42.597Z,80.42
2022-10-05T16:30:02.944Z,80.20
2022-10-05T16:33:39.831Z,80.94
2022-10-05T16:37:02.726Z,80.79
2022-10-05T16:40:08.688Z,81.06
2022-10-05T16:43:29.033Z,82.02
2022-10-05T16:46:46.968Z,82.18
2022-10-05T16:49:57.837Z,82.04
2022-10-05T16:53:11.603Z,81.48
2022-10-05T16:56:19.706Z,81.63
2022-10-05T16:59:44.041Z,81.14
2022-10-05T17:02:58.177Z,82.13
2022-10-05T17:06:20.365Z,82.15
2022-10-05T17:10:03.713Z,81.10
2022-10-05T17:13:29.171Z,81.35
2022-10-05T17:17:26.660Z,81.37
2022-10-05T17:20:57.290Z,81.95
2022-10-05T17:24:22.608Z,82.42
2022-10-05T17:27:54.137Z,82.27
2022-10-05T17:30:58.977Z,82.44
2022-10-05T17:34:23.677Z,83.08
2022-10-05T17:37:43.965Z,83.31
2022-10-05T17:41:05.800Z,82.87
2022-10-05T17:44:13.922Z,83.01
2022-10-05T17:47:16.405Z,82.70
2022-10-05T17:50:55.507Z,85.97
2022-10-05T17:54:16.583Z,86.76
2022-10-05T17:57:25.697Z,85.67
2022-10-05T18:00:42.134Z,86.29
2022-10-05T18:03:51.828Z,84.61
2022-10-05T18:06:57.382Z,84.69
2022-10-05T18:10:04.647Z,86.10
2022-10-05T18:13:35.279Z,85.91
2022-10-05T18:16:57.256Z,84.92
2022-10-05T18:20:24.325Z,84.87
2022-10-05T18:23:30.097Z,84.20
2022-10-05T18:26:47.242Z,83.65
2022-10-05T18:30:09.431Z,84.64
2022-10-05T18:33:49.527Z,84.36
2022-10-05T18:37:27.085Z,84.17
2022-10-05T18:40:32.127Z,85.02
2022-10-05T18:43:51.469Z,85.05
2022-10-05T18:47:15.834Z,84.30
2022-10-05T18:50:38.853Z,84.46
2022-10-05T18:54:03.845Z,84.40
2022-10-05T18:57:30.017Z,83.81
2022-10-05T19:00:44.143Z,84.04
2022-10-05T19:03:55.299Z,84.07
2022-10-05T19:06:57.377Z,84.53
2022-10-05T19:10:07.858Z,85.26
2022-10-05T19:13:47.126Z,84.74
2022-10-05T19:17:08.134Z,84.92
2022-10-05T19:20:35.979Z,85.51
2022-10-05T19:23:42.787Z,85.11
2022-10-05T19:27:27.137Z,85.73
2022-10-05T19:30:44.019Z,85.12
2022-10-05T19:34:01.934Z,84.75
2022-10-05T19:37:21.437Z,84.65
2022-10-05T19:40:39.275Z,85.26
2022-10-05T19:43:58.561Z,85.80
2022-10-05T19:47:02.966Z,85.75
2022-10-05T19:50:22.126Z,85.74
2022-10-05T19:53:31.372Z,86.20
2022-10-05T19:56:34.424Z,85.49
2022-10-05T19:59:37.627Z,85.34
2022-10-05T20:02:42.186Z,86.02
2022-10-05T20:05:45.077Z,86.33
2022-10-05T20:08:49.826Z,85.95
2022-10-05T20:11:53.288Z,85.62
2022-10-05T20:15:25.410Z,85.90
2022-10-05T20:19:01.533Z,87.19
2022-10-05T20:22:24.091Z,86.36
2022-10-05T20:25:26.159Z,86.05
2022-10-05T20:28:32.271Z,86.06
2022-10-05T20:31:35.247Z,85.91
2022-10-05T20:34:41.535Z,86.33
2022-10-05T20:37:43.579Z,85.89
2022-10-05T20:40:50.081Z,86.07
2022-10-05T20:43:52.200Z,86.41
2022-10-05T20:46:57.698Z,86.03
2022-10-05T20:49:59.918Z,86.14
2022-10-05T20:53:02.122Z,86.29
2022-10-05T20:56:04.758Z,87.25
2022-10-05T20:59:06.845Z,87.10
2022-10-05T21:02:10.281Z,86.64
2022-10-05T21:05:12.566Z,86.37
2022-10-05T21:08:14.399Z,86.72
2022-10-05T21:11:17.578Z,86.61
2022-10-05T21:14:19.279Z,86.98
2022-10-05T21:17:21.254Z,87.34
2022-10-05T21:20:23.259Z,87.29
2022-10-05T21:23:25.284Z,87.84
2022-10-05T21:26:29.209Z,87.59
2022-10-05T21:29:35.454Z,87.58
2022-10-05T21:32:41.777Z,87.91
2022-10-05T21:35:46.068Z,86.79
2022-10-05T21:38:48.856Z,87.42
2022-10-05T21:41:50.787Z,88.13
2022-10-05T21:44:52.762Z,88.34
2022-10-05T21:47:54.761Z,89.55
2022-10-05T21:50:57.772Z,90.03
2022-10-05T21:54:07.346Z,89.29
2022-10-05T21:57:11.366Z,87.62
2022-10-05T22:00:16.484Z,88.09
2022-10-05T22:03:18.384Z,88.75
2022-10-05T22:06:20.179Z,88.86
2022-10-05T22:09:24.474Z,88.69
2022-10-05T22:12:26.563Z,88.95
2022-10-05T22:15:29.676Z,88.12
2022-10-05T22:18:31.798Z,87.95
2022-10-05T22:21:38.219Z,87.71
2022-10-05T22:24:40.065Z,88.03
2022-10-05T22:27:43.072Z,88.87
2022-10-05T22:30:45.416Z,88.59
2022-10-05T22:33:47.151Z,88.54
2022-10-05T22:36:49.076Z,88.36
2022-10-05T22:39:50.920Z,88.81
2022-10-05T22:42:54.575Z,88.43
2022-10-05T22:45:56.643Z,88.49
2022-10-05T22:48:58.457Z,88.70
2022-10-05T22:52:00.191Z,87.65
2022-10-05T22:55:02.242Z,88.62
2022-10-05T22:58:04.046Z,88.88
2022-10-05T23:01:08.546Z,87.66
2022-10-05T23:04:16.886Z,88.24
2022-10-05T23:07:18.745Z,87.79
2022-10-05T23:10:20.469Z,87.94
2022-10-05T23:13:22.639Z,87.98
2022-10-05T23:16:26.904Z,87.64
2022-10-05T23:19:30.144Z,87.15
2022-10-05T23:22:36.754Z,87.56
2022-10-05T23:25:38.543Z,88.21
2022-10-05T23:28:43.237Z,87.64
2022-10-05T23:31:45.175Z,88.07
2022-10-05T23:34:48.978Z,88.46
2022-10-05T23:37:51.076Z,89.70
2022-10-05T23:40:52.932Z,89.37
2022-10-05T23:43:55.374Z,89.05
2022-10-05T23:46:57.320Z,89.69
2022-10-05T23:50:01.621Z,91.76
2022-10-05T23:53:03.931Z,91.73
2022-10-05T23:56:06.093Z,90.85
2022-10-05T23:59:07.779Z,89.38
